Inhumas, Brazil
Current Conditions -  °F | °C
As of 9:00 PM on Saturday 20 Dec 2014 (Local Time) from SBGO Reporting Station
Overcast Overcast  
Wind Chill: 73°   Ceiling: 8000
Heat Index: 73°   Visibility: 6mi
Dew Point: 66°   Wind: 6mph
Humidity: 78%   Direction: 20°NNE
Pressure: 29.94"   Gusts: NA
Location:  16.36°S, 49.5°W
Report Text: SBGO 202300Z 02005KT 9999 SCT023 FEW045TCU OVC080 23/19 Q1014
Loading
Personal Weather Stations






























Interactive Weather Map New forecast layout! Learn more

10-Day Weather Forecast

Advertisements
Track Severe Weather on mobile